Time;durP1;ratioP1;P1;durP2;ratioP2;P2;SDS_P1;SDS_P2;PMS_P1;PMS_P2;Temp;Humidity;BMP_temperature;BMP_pressure;BME280_temperature;BME280_humidity;BME280_pressure;Samples;Min_cycle;Max_cycle;Signal;HPM_P1;HPM_P2
2022/07/21 00:00:22;;;;;;;;;;;18.90;99.90;;;;;;5099041;28;19923;-67
2022/07/21 00:02:48;;;;;;;;;;;18.90;99.90;;;;;;5079243;28;20288;-66
2022/07/21 00:05:14;;;;;;;;;;;18.80;99.90;;;;;;5090955;28;19915;-65
2022/07/21 00:07:40;;;;;;;;;;;18.70;99.90;;;;;;5097658;28;20361;-66
2022/07/21 00:10:06;;;;;;;;;;;18.60;99.90;;;;;;5096455;28;20326;-66
2022/07/21 00:12:32;;;;;;;;;;;18.60;99.90;;;;;;5099928;28;19912;-65
2022/07/21 00:14:57;;;;;;;;;;;18.70;99.90;;;;;;5098186;28;20254;-66
2022/07/21 00:17:23;;;;;;;;;;;18.70;99.90;;;;;;5096477;28;19946;-66
2022/07/21 00:19:48;;;;;;;;;;;18.80;99.90;;;;;;5082728;28;19919;-67
2022/07/21 00:22:14;;;;;;;;;;;18.80;99.90;;;;;;5092825;28;19916;-67
2022/07/21 00:24:39;;;;;;;;;;;18.60;99.90;;;;;;5094344;28;19915;-66
2022/07/21 00:27:05;;;;;;;;;;;18.50;99.90;;;;;;5099680;28;19916;-66
2022/07/21 00:29:30;;;;;;;;;;;18.60;99.90;;;;;;5091540;28;19927;-66
2022/07/21 00:31:56;;;;;;;;;;;18.60;99.90;;;;;;5095661;28;19913;-66
2022/07/21 00:34:21;;;;;;;;;;;18.70;99.90;;;;;;5097470;28;20353;-67
2022/07/21 00:36:47;;;;;;;;;;;18.70;99.90;;;;;;5092111;28;19958;-67
2022/07/21 00:39:13;;;;;;;;;;;18.60;99.90;;;;;;5092996;28;19963;-66
2022/07/21 00:41:38;;;;;;;;;;;18.60;99.90;;;;;;5094757;28;20393;-66
2022/07/21 00:44:04;;;;;;;;;;;18.50;99.90;;;;;;5073330;28;19924;-66
2022/07/21 00:46:30;;;;;;;;;;;18.40;99.90;;;;;;5093595;28;20448;-65
2022/07/21 00:48:55;;;;;;;;;;;18.40;99.90;;;;;;5097058;28;19913;-65
2022/07/21 00:51:21;;;;;;;;;;;18.30;99.90;;;;;;5091690;28;19964;-66
2022/07/21 00:53:46;;;;;;;;;;;18.20;99.90;;;;;;5098377;28;20003;-66
2022/07/21 00:56:12;;;;;;;;;;;18.30;99.90;;;;;;5097134;28;20006;-66
2022/07/21 00:58:39;;;;;;;;;;;18.40;99.90;;;;;;5099226;28;19912;-66
2022/07/21 01:01:05;;;;;;;;;;;18.40;99.90;;;;;;5099041;28;19923;-65
2022/07/21 01:03:30;;;;;;;;;;;18.40;99.90;;;;;;5101387;28;20285;-66
2022/07/21 01:05:57;;;;;;;;;;;18.30;99.90;;;;;;5088638;28;19912;-66
2022/07/21 01:08:23;;;;;;;;;;;18.30;99.90;;;;;;5096053;28;19919;-65
2022/07/21 01:10:49;;;;;;;;;;;18.30;99.90;;;;;;5094352;28;19912;-65
2022/07/21 01:13:14;;;;;;;;;;;18.30;99.90;;;;;;5084463;28;19942;-65
2022/07/21 01:15:40;;;;;;;;;;;18.30;99.90;;;;;;5097424;28;19912;-66
2022/07/21 01:18:06;;;;;;;;;;;18.20;99.90;;;;;;5098418;28;20012;-66
2022/07/21 01:20:33;;;;;;;;;;;18.20;99.90;;;;;;5099484;28;20255;-65
2022/07/21 01:22:59;;;;;;;;;;;18.20;99.90;;;;;;5101053;28;20263;-65
2022/07/21 01:25:25;;;;;;;;;;;18.30;99.90;;;;;;5098376;28;19919;-65
2022/07/21 01:27:50;;;;;;;;;;;18.20;99.90;;;;;;5100779;28;19959;-65
2022/07/21 01:30:16;;;;;;;;;;;18.10;99.90;;;;;;5083853;28;20035;-66
2022/07/21 01:32:42;;;;;;;;;;;18.10;99.90;;;;;;5094521;28;20366;-65
2022/07/21 01:35:09;;;;;;;;;;;18.00;99.90;;;;;;5092985;28;19921;-66
2022/07/21 01:37:36;;;;;;;;;;;18.00;99.90;;;;;;5094920;28;19920;-66
2022/07/21 01:42:46;;;;;;;;;;;17.80;99.90;;;;;;5096366;28;20001;-66
2022/07/21 01:45:12;;;;;;;;;;;17.70;99.90;;;;;;5096022;28;20374;-66
2022/07/21 01:47:38;;;;;;;;;;;17.70;99.90;;;;;;5094611;28;20598;-65
2022/07/21 01:50:04;;;;;;;;;;;17.70;99.90;;;;;;5100746;28;19912;-65
2022/07/21 01:52:29;;;;;;;;;;;17.60;99.90;;;;;;5100528;28;22014;-66
2022/07/21 01:54:55;;;;;;;;;;;17.60;99.90;;;;;;5097305;28;20010;-66
2022/07/21 01:57:21;;;;;;;;;;;17.60;99.90;;;;;;5076068;28;19912;-65
2022/07/21 01:59:46;;;;;;;;;;;17.70;99.90;;;;;;5100993;28;20263;-66
2022/07/21 02:02:12;;;;;;;;;;;17.60;99.90;;;;;;5101554;28;20358;-66
2022/07/21 02:04:37;;;;;;;;;;;17.60;99.90;;;;;;5094996;28;19990;-65
2022/07/21 02:07:03;;;;;;;;;;;17.50;99.90;;;;;;5089309;28;19969;-66
2022/07/21 02:09:29;;;;;;;;;;;17.50;99.90;;;;;;5102430;28;19912;-65
2022/07/21 02:11:55;;;;;;;;;;;17.50;99.90;;;;;;5094547;28;20362;-65
2022/07/21 02:14:20;;;;;;;;;;;17.60;99.90;;;;;;5095875;28;19926;-65
2022/07/21 02:16:46;;;;;;;;;;;17.40;99.90;;;;;;5100104;28;20328;-66
2022/07/21 02:19:11;;;;;;;;;;;17.40;99.90;;;;;;5083598;28;19928;-65
2022/07/21 02:21:37;;;;;;;;;;;17.40;99.90;;;;;;5071441;28;20260;-65
2022/07/21 02:24:03;;;;;;;;;;;17.40;99.90;;;;;;5073783;28;20170;-66
2022/07/21 02:26:28;;;;;;;;;;;17.50;99.90;;;;;;5076317;28;20361;-65
2022/07/21 02:28:54;;;;;;;;;;;17.70;99.90;;;;;;5079820;28;19919;-65
2022/07/21 02:31:20;;;;;;;;;;;17.70;99.90;;;;;;5072978;28;20270;-65
2022/07/21 02:33:45;;;;;;;;;;;17.70;99.90;;;;;;5071919;28;19913;-64
2022/07/21 02:36:11;;;;;;;;;;;17.70;99.90;;;;;;5074470;28;19920;-66
2022/07/21 02:38:37;;;;;;;;;;;17.60;99.90;;;;;;5073854;28;19958;-66
2022/07/21 02:41:02;;;;;;;;;;;17.60;99.90;;;;;;5076219;28;19924;-65
2022/07/21 02:43:28;;;;;;;;;;;17.70;99.90;;;;;;5076990;28;20135;-65
2022/07/21 02:45:53;;;;;;;;;;;17.80;99.90;;;;;;5076484;28;19926;-65
2022/07/21 02:48:19;;;;;;;;;;;17.80;99.90;;;;;;5079605;28;19912;-65
2022/07/21 02:50:45;;;;;;;;;;;17.80;99.90;;;;;;5055691;28;19912;-65
2022/07/21 02:53:12;;;;;;;;;;;17.80;99.90;;;;;;5062283;28;19964;-65
2022/07/21 02:55:38;;;;;;;;;;;17.70;99.90;;;;;;5056043;28;19920;-65
2022/07/21 02:58:06;;;;;;;;;;;17.60;99.90;;;;;;5077784;28;19981;-65
2022/07/21 03:00:32;;;;;;;;;;;17.70;99.90;;;;;;5070913;28;20020;-64
2022/07/21 03:02:58;;;;;;;;;;;17.70;99.90;;;;;;5075282;28;19916;-65
2022/07/21 03:05:23;;;;;;;;;;;17.80;99.90;;;;;;5076032;28;20495;-66
2022/07/21 03:07:49;;;;;;;;;;;17.70;99.90;;;;;;5074578;28;20278;-66
2022/07/21 03:10:14;;;;;;;;;;;17.60;99.90;;;;;;5078076;28;20593;-65
2022/07/21 03:12:40;;;;;;;;;;;17.50;99.90;;;;;;5075645;28;19925;-65
2022/07/21 03:15:05;;;;;;;;;;;17.40;99.90;;;;;;5075318;28;20003;-65
2022/07/21 03:17:31;;;;;;;;;;;17.50;99.90;;;;;;5077670;28;20290;-66
2022/07/21 03:19:57;;;;;;;;;;;17.50;99.90;;;;;;5093379;28;19920;-65
2022/07/21 03:22:22;;;;;;;;;;;17.30;99.90;;;;;;5101954;28;19922;-65
2022/07/21 03:24:50;;;;;;;;;;;17.20;99.90;;;;;;5093488;28;20358;-66
2022/07/21 03:27:17;;;;;;;;;;;17.20;99.90;;;;;;5077574;28;19923;-65
2022/07/21 03:29:42;;;;;;;;;;;17.00;99.90;;;;;;5094777;28;19912;-66
2022/07/21 03:32:08;;;;;;;;;;;16.90;99.90;;;;;;5093890;28;19919;-65
2022/07/21 03:34:34;;;;;;;;;;;16.80;99.90;;;;;;5096837;28;19964;-64
2022/07/21 03:36:59;;;;;;;;;;;16.70;99.90;;;;;;5094753;28;19912;-65
2022/07/21 03:39:25;;;;;;;;;;;16.60;99.90;;;;;;5098797;28;19980;-66
2022/07/21 03:41:50;;;;;;;;;;;16.70;99.90;;;;;;5094632;28;19919;-65
2022/07/21 03:44:16;;;;;;;;;;;16.80;99.90;;;;;;5091627;28;19939;-66
2022/07/21 03:46:41;;;;;;;;;;;16.90;99.90;;;;;;5075831;28;19916;-65
2022/07/21 03:49:07;;;;;;;;;;;17.10;99.90;;;;;;5092850;28;19915;-65
2022/07/21 03:51:32;;;;;;;;;;;17.20;99.90;;;;;;5089291;28;20046;-65
2022/07/21 03:53:59;;;;;;;;;;;17.30;99.90;;;;;;5097743;28;19912;-65
2022/07/21 03:56:24;;;;;;;;;;;17.20;99.90;;;;;;5092897;28;19916;-66
2022/07/21 03:58:50;;;;;;;;;;;17.10;99.90;;;;;;5092386;28;19943;-65
2022/07/21 04:01:15;;;;;;;;;;;17.20;99.90;;;;;;5097412;28;19958;-65
2022/07/21 04:03:41;;;;;;;;;;;17.20;99.90;;;;;;5095021;28;20385;-65
2022/07/21 04:06:10;;;;;;;;;;;17.10;99.90;;;;;;5088452;28;19912;-65
2022/07/21 04:08:35;;;;;;;;;;;17.10;99.90;;;;;;5094693;28;19920;-65
2022/07/21 04:11:01;;;;;;;;;;;17.10;99.90;;;;;;5086659;28;19969;-65
2022/07/21 04:13:27;;;;;;;;;;;17.00;99.90;;;;;;5090005;28;19919;-66
2022/07/21 04:15:52;;;;;;;;;;;16.80;99.90;;;;;;5090509;28;19912;-65
2022/07/21 04:18:18;;;;;;;;;;;16.80;99.90;;;;;;5089846;28;20410;-65
2022/07/21 04:20:43;;;;;;;;;;;16.80;99.90;;;;;;5092381;28;19920;-66
2022/07/21 04:23:09;;;;;;;;;;;16.90;99.90;;;;;;5101777;28;19916;-66
2022/07/21 04:25:35;;;;;;;;;;;17.00;99.90;;;;;;5088084;28;19919;-65
2022/07/21 04:28:01;;;;;;;;;;;17.00;99.90;;;;;;5100768;28;19915;-65
2022/07/21 04:30:27;;;;;;;;;;;17.00;99.90;;;;;;5100418;28;20381;-66
2022/07/21 04:32:52;;;;;;;;;;;16.80;99.90;;;;;;5103202;28;20427;-66
2022/07/21 04:35:18;;;;;;;;;;;16.70;99.90;;;;;;5079410;28;19923;-66
2022/07/21 04:37:44;;;;;;;;;;;16.70;99.90;;;;;;5095289;28;19916;-66
2022/07/21 04:40:11;;;;;;;;;;;16.60;99.90;;;;;;5098002;28;19923;-65
2022/07/21 04:42:36;;;;;;;;;;;16.50;99.90;;;;;;5098522;28;20252;-64
2022/07/21 04:45:03;;;;;;;;;;;16.50;99.90;;;;;;5090947;28;19922;-65
2022/07/21 04:47:29;;;;;;;;;;;16.40;99.90;;;;;;5098727;28;19916;-65
2022/07/21 04:49:54;;;;;;;;;;;16.30;99.90;;;;;;5095019;28;19957;-65
2022/07/21 04:52:20;;;;;;;;;;;16.30;99.90;;;;;;5088205;28;19912;-66
2022/07/21 04:54:45;;;;;;;;;;;16.20;99.90;;;;;;5099634;28;19990;-65
2022/07/21 04:57:11;;;;;;;;;;;16.30;99.90;;;;;;5096904;28;20121;-66
2022/07/21 04:59:37;;;;;;;;;;;16.20;99.90;;;;;;5099858;28;20308;-65
2022/07/21 05:02:03;;;;;;;;;;;16.10;99.90;;;;;;5072736;28;19923;-65
2022/07/21 05:04:28;;;;;;;;;;;16.10;99.90;;;;;;5068639;28;20282;-66
2022/07/21 05:06:54;;;;;;;;;;;16.20;99.90;;;;;;5099643;28;19911;-65
2022/07/21 05:09:20;;;;;;;;;;;16.40;99.90;;;;;;5096129;28;20030;-65
2022/07/21 05:11:46;;;;;;;;;;;16.50;99.90;;;;;;5086190;28;19912;-66
2022/07/21 05:14:11;;;;;;;;;;;16.60;99.90;;;;;;5098126;28;19931;-65
2022/07/21 05:16:37;;;;;;;;;;;16.60;99.90;;;;;;5094540;28;20010;-65
2022/07/21 05:19:03;;;;;;;;;;;16.50;99.90;;;;;;5090534;28;20286;-66
2022/07/21 05:21:28;;;;;;;;;;;16.40;99.90;;;;;;5090609;28;19969;-66
2022/07/21 05:23:54;;;;;;;;;;;16.40;99.90;;;;;;5092144;28;19974;-65
2022/07/21 05:26:20;;;;;;;;;;;16.50;99.90;;;;;;5092258;28;19912;-65
2022/07/21 05:28:45;;;;;;;;;;;16.70;99.90;;;;;;5094228;28;20504;-66
2022/07/21 05:31:11;;;;;;;;;;;16.70;99.90;;;;;;5092283;28;19969;-66
2022/07/21 05:33:36;;;;;;;;;;;16.60;99.90;;;;;;5094813;28;20391;-65
2022/07/21 05:36:03;;;;;;;;;;;16.60;99.90;;;;;;5093652;28;19912;-66
2022/07/21 05:38:29;;;;;;;;;;;16.70;99.90;;;;;;5097072;28;20485;-65
2022/07/21 05:40:55;;;;;;;;;;;16.70;99.90;;;;;;5095635;28;19967;-65
2022/07/21 05:43:20;;;;;;;;;;;16.70;99.90;;;;;;5092340;28;20257;-66
2022/07/21 05:45:46;;;;;;;;;;;16.90;99.90;;;;;;5088269;28;20555;-66
2022/07/21 05:48:12;;;;;;;;;;;16.90;99.90;;;;;;5089529;28;20006;-66
2022/07/21 05:50:37;;;;;;;;;;;16.90;99.90;;;;;;5097370;28;19916;-66
2022/07/21 05:53:03;;;;;;;;;;;17.00;99.90;;;;;;5090370;28;19920;-67
2022/07/21 05:55:28;;;;;;;;;;;17.10;99.90;;;;;;5077169;28;20447;-66
2022/07/21 05:57:54;;;;;;;;;;;17.10;99.90;;;;;;5102630;28;19965;-66
2022/07/21 06:00:19;;;;;;;;;;;17.10;99.90;;;;;;5097806;28;19916;-66
2022/07/21 06:02:45;;;;;;;;;;;17.10;99.90;;;;;;5096376;28;20275;-67
2022/07/21 06:05:11;;;;;;;;;;;17.30;99.90;;;;;;5094620;28;19920;-67
2022/07/21 06:07:37;;;;;;;;;;;17.40;99.90;;;;;;5083874;28;20377;-66
2022/07/21 06:10:03;;;;;;;;;;;17.40;99.90;;;;;;5104388;28;19951;-68
2022/07/21 06:12:29;;;;;;;;;;;17.50;99.90;;;;;;5099777;28;19919;-66
2022/07/21 06:14:55;;;;;;;;;;;17.60;99.90;;;;;;5101487;28;20395;-66
2022/07/21 06:17:21;;;;;;;;;;;17.50;99.90;;;;;;5099586;28;19919;-66
2022/07/21 06:19:46;;;;;;;;;;;17.40;99.90;;;;;;5101658;28;20299;-66
2022/07/21 06:22:12;;;;;;;;;;;17.30;99.90;;;;;;5095159;28;19916;-66
2022/07/21 06:24:37;;;;;;;;;;;17.30;99.90;;;;;;5097947;28;20263;-65
2022/07/21 06:27:03;;;;;;;;;;;17.30;99.90;;;;;;5093252;28;19942;-66
2022/07/21 06:29:29;;;;;;;;;;;17.40;99.90;;;;;;5095506;28;20003;-65
2022/07/21 06:31:54;;;;;;;;;;;17.40;99.90;;;;;;5087241;28;19912;-65
2022/07/21 06:34:20;;;;;;;;;;;17.30;99.90;;;;;;5087063;28;19926;-65
2022/07/21 06:36:45;;;;;;;;;;;17.30;99.90;;;;;;5099719;28;19928;-66
2022/07/21 06:39:14;;;;;;;;;;;17.30;99.90;;;;;;5073024;28;20283;-65
2022/07/21 06:41:40;;;;;;;;;;;17.30;99.90;;;;;;5095782;28;19951;-66
2022/07/21 06:44:06;;;;;;;;;;;17.30;99.90;;;;;;5090096;28;19971;-67
2022/07/21 06:46:32;;;;;;;;;;;17.30;99.90;;;;;;5077969;28;20041;-67
2022/07/21 06:48:58;;;;;;;;;;;17.10;99.90;;;;;;5079551;28;19912;-66
2022/07/21 06:51:23;;;;;;;;;;;17.20;99.90;;;;;;5104167;28;19928;-67
2022/07/21 06:53:49;;;;;;;;;;;17.20;99.90;;;;;;5086744;28;19920;-68
2022/07/21 06:56:16;;;;;;;;;;;17.20;99.90;;;;;;5093457;28;20260;-68
2022/07/21 06:58:42;;;;;;;;;;;17.20;99.90;;;;;;5099081;28;19919;-67
2022/07/21 07:01:08;;;;;;;;;;;17.30;99.90;;;;;;5098596;28;20278;-67
2022/07/21 07:03:33;;;;;;;;;;;17.20;99.90;;;;;;5097803;28;19947;-68
2022/07/21 07:05:59;;;;;;;;;;;17.20;99.90;;;;;;5094345;28;20332;-68
2022/07/21 07:08:24;;;;;;;;;;;17.40;99.90;;;;;;5096044;28;19912;-66
2022/07/21 07:10:50;;;;;;;;;;;17.50;99.90;;;;;;5087928;28;19912;-66
2022/07/21 07:13:17;;;;;;;;;;;17.40;99.90;;;;;;5095672;28;19950;-67
2022/07/21 07:15:43;;;;;;;;;;;17.40;99.90;;;;;;5099451;28;19916;-67
2022/07/21 07:18:09;;;;;;;;;;;17.50;99.90;;;;;;5092561;28;19927;-67
2022/07/21 07:20:34;;;;;;;;;;;17.50;99.90;;;;;;5097320;28;19930;-66
2022/07/21 07:23:00;;;;;;;;;;;17.70;99.90;;;;;;5095057;28;20378;-64
2022/07/21 07:25:26;;;;;;;;;;;17.70;99.90;;;;;;5094467;28;19938;-65
2022/07/21 07:27:51;;;;;;;;;;;17.70;99.90;;;;;;5089292;28;19951;-67
2022/07/21 07:30:17;;;;;;;;;;;17.80;99.90;;;;;;5092417;28;19912;-66
2022/07/21 07:32:43;;;;;;;;;;;17.90;99.90;;;;;;5062917;28;19919;-66
2022/07/21 07:35:10;;;;;;;;;;;18.10;99.90;;;;;;5086048;28;19964;-65
2022/07/21 07:37:36;;;;;;;;;;;18.10;99.90;;;;;;5094313;28;19923;-65
2022/07/21 07:40:03;;;;;;;;;;;18.10;99.90;;;;;;5094733;28;19989;-65
2022/07/21 07:42:28;;;;;;;;;;;18.00;99.90;;;;;;5092691;28;19919;-66
2022/07/21 07:44:54;;;;;;;;;;;18.10;99.90;;;;;;5094378;28;19918;-65
2022/07/21 07:47:20;;;;;;;;;;;18.10;99.90;;;;;;5094831;28;19923;-66
2022/07/21 07:49:50;;;;;;;;;;;18.10;99.90;;;;;;5096116;28;19926;-66
2022/07/21 07:52:16;;;;;;;;;;;18.30;99.90;;;;;;5088384;28;20015;-66
2022/07/21 07:54:41;;;;;;;;;;;18.30;99.90;;;;;;5094157;28;20398;-65
2022/07/21 07:57:07;;;;;;;;;;;18.70;99.90;;;;;;5094766;28;19915;-65
2022/07/21 07:59:32;;;;;;;;;;;18.80;99.90;;;;;;5087375;28;19916;-66
2022/07/21 08:01:58;;;;;;;;;;;18.70;99.90;;;;;;5085404;28;19916;-65
2022/07/21 08:04:24;;;;;;;;;;;18.60;99.90;;;;;;5094391;28;19915;-65
2022/07/21 08:06:49;;;;;;;;;;;18.30;99.90;;;;;;5097376;28;19966;-68
2022/07/21 08:09:15;;;;;;;;;;;18.20;99.90;;;;;;5089163;28;20316;-66
2022/07/21 08:11:40;;;;;;;;;;;18.30;99.90;;;;;;5088813;28;20259;-65
2022/07/21 08:14:06;;;;;;;;;;;18.50;99.90;;;;;;5073304;28;19992;-65
2022/07/21 08:16:33;;;;;;;;;;;18.50;99.90;;;;;;5075074;28;20356;-65
2022/07/21 08:18:59;;;;;;;;;;;18.40;99.90;;;;;;5073265;28;19950;-66
2022/07/21 08:21:30;;;;;;;;;;;18.30;99.90;;;;;;5079384;28;19919;-66
2022/07/21 08:23:55;;;;;;;;;;;18.50;99.90;;;;;;5095892;28;19962;-66
2022/07/21 08:26:21;;;;;;;;;;;18.80;99.90;;;;;;5076517;28;20021;-66
2022/07/21 08:28:46;;;;;;;;;;;19.20;99.90;;;;;;5097624;28;19981;-65
2022/07/21 08:31:12;;;;;;;;;;;19.30;99.90;;;;;;5095094;28;19999;-65
2022/07/21 08:33:38;;;;;;;;;;;19.50;99.90;;;;;;5093813;28;19964;-66
2022/07/21 08:36:04;;;;;;;;;;;19.30;99.90;;;;;;5098430;28;20024;-67
2022/07/21 08:38:29;;;;;;;;;;;19.50;99.90;;;;;;5075672;28;19919;-66
2022/07/21 08:40:55;;;;;;;;;;;19.60;99.90;;;;;;5096740;28;19920;-66
2022/07/21 08:43:21;;;;;;;;;;;19.50;99.90;;;;;;5090215;28;19924;-66
2022/07/21 08:45:47;;;;;;;;;;;19.50;99.90;;;;;;5073341;28;19920;-66
2022/07/21 08:48:17;;;;;;;;;;;19.50;99.90;;;;;;5093526;28;19977;-65
2022/07/21 08:50:43;;;;;;;;;;;19.60;99.90;;;;;;5091409;28;19912;-66
2022/07/21 08:53:09;;;;;;;;;;;19.60;99.90;;;;;;5095292;28;20332;-66
2022/07/21 08:55:36;;;;;;;;;;;19.50;99.90;;;;;;5090664;28;19993;-66
2022/07/21 08:58:03;;;;;;;;;;;19.70;99.90;;;;;;5095283;28;19912;-66
2022/07/21 09:00:28;;;;;;;;;;;19.90;99.90;;;;;;5073527;28;20313;-65
2022/07/21 09:03:13;;;;;;;;;;;20.30;99.90;;;;;;5096700;28;20011;-67
2022/07/21 09:05:39;;;;;;;;;;;20.50;98.50;;;;;;5085279;28;20019;-66
2022/07/21 09:08:04;;;;;;;;;;;20.70;97.20;;;;;;5087106;28;19926;-66
2022/07/21 09:10:31;;;;;;;;;;;20.40;97.50;;;;;;5096476;28;19920;-66
2022/07/21 09:12:58;;;;;;;;;;;20.10;98.10;;;;;;5092485;28;20235;-67
2022/07/21 09:15:25;;;;;;;;;;;20.10;98.90;;;;;;5086154;28;19928;-66
2022/07/21 09:18:09;;;;;;;;;;;20.00;99.40;;;;;;5090041;28;19920;-65
2022/07/21 09:20:35;;;;;;;;;;;20.00;99.20;;;;;;5089434;28;20374;-66
2022/07/21 09:23:05;;;;;;;;;;;20.00;99.30;;;;;;5087212;28;19916;-65
2022/07/21 09:25:38;;;;;;;;;;;20.10;98.80;;;;;;5090719;28;19912;-66
2022/07/21 09:28:18;;;;;;;;;;;20.40;99.30;;;;;;5089825;28;19920;-65
2022/07/21 09:30:51;;;;;;;;;;;20.70;97.00;;;;;;5092292;28;20479;-65
2022/07/21 09:33:20;;;;;;;;;;;20.80;97.70;;;;;;5085735;28;19924;-64
2022/07/21 09:36:05;;;;;;;;;;;21.00;96.60;;;;;;5086498;28;19941;-66
2022/07/21 09:38:32;;;;;;;;;;;21.40;95.20;;;;;;5080160;28;19963;-66
2022/07/21 09:41:08;;;;;;;;;;;21.20;94.80;;;;;;5099010;28;19923;-66
2022/07/21 09:43:41;;;;;;;;;;;21.20;95.10;;;;;;5101545;28;19916;-66
2022/07/21 09:46:08;;;;;;;;;;;21.20;94.80;;;;;;5101568;28;20006;-66
2022/07/21 09:48:34;;;;;;;;;;;21.20;94.40;;;;;;5092603;28;19912;-66
2022/07/21 09:51:22;;;;;;;;;;;21.20;94.90;;;;;;5090731;28;20167;-66
2022/07/21 09:54:01;;;;;;;;;;;21.30;94.50;;;;;;5098683;28;19924;-65
2022/07/21 09:56:28;;;;;;;;;;;21.20;94.60;;;;;;5093688;28;19912;-66
2022/07/21 09:58:55;;;;;;;;;;;20.90;95.00;;;;;;5087497;28;19912;-66
2022/07/21 10:01:21;;;;;;;;;;;20.70;95.10;;;;;;5086313;28;19955;-65
2022/07/21 10:03:47;;;;;;;;;;;20.80;95.10;;;;;;5094125;28;20024;-65
2022/07/21 10:06:14;;;;;;;;;;;20.70;95.40;;;;;;5067901;28;19920;-65
2022/07/21 10:08:40;;;;;;;;;;;20.90;95.20;;;;;;5091792;28;19958;-65
2022/07/21 10:11:06;;;;;;;;;;;20.80;94.70;;;;;;5089442;28;19920;-66
2022/07/21 10:13:32;;;;;;;;;;;20.70;95.30;;;;;;5089672;28;20506;-65
2022/07/21 10:15:58;;;;;;;;;;;20.80;95.60;;;;;;5091898;28;19947;-65
2022/07/21 10:18:29;;;;;;;;;;;20.90;95.10;;;;;;5091883;28;19966;-65
2022/07/21 10:21:13;;;;;;;;;;;21.20;94.40;;;;;;5094634;28;19924;-64
2022/07/21 10:23:41;;;;;;;;;;;21.30;93.80;;;;;;5093458;28;19927;-64
2022/07/21 10:26:07;;;;;;;;;;;21.30;93.30;;;;;;5096088;28;20263;-63
2022/07/21 10:28:33;;;;;;;;;;;21.30;93.10;;;;;;5097579;28;19912;-65
2022/07/21 10:30:59;;;;;;;;;;;21.30;93.90;;;;;;5075603;28;20175;-64
2022/07/21 10:33:43;;;;;;;;;;;21.60;92.70;;;;;;5087948;28;20345;-66
2022/07/21 10:36:09;;;;;;;;;;;21.50;92.30;;;;;;5097213;28;19919;-65
2022/07/21 10:38:36;;;;;;;;;;;21.00;94.40;;;;;;5089202;28;20431;-65
2022/07/21 10:41:03;;;;;;;;;;;20.80;95.00;;;;;;5079672;28;19916;-64
2022/07/21 10:43:28;;;;;;;;;;;20.70;95.20;;;;;;5094607;28;19932;-65
2022/07/21 10:45:55;;;;;;;;;;;20.70;95.60;;;;;;5085017;28;19951;-65
2022/07/21 10:48:42;;;;;;;;;;;20.70;95.60;;;;;;5082243;28;20275;-65
2022/07/21 10:51:08;;;;;;;;;;;20.70;95.30;;;;;;5099009;28;19911;-64
2022/07/21 10:53:34;;;;;;;;;;;20.80;96.20;;;;;;5104446;28;20051;-66
2022/07/21 10:55:59;;;;;;;;;;;20.90;95.40;;;;;;5097108;28;20380;-65
2022/07/21 10:58:38;;;;;;;;;;;20.70;95.40;;;;;;5093770;28;19932;-65
2022/07/21 11:01:04;;;;;;;;;;;20.80;96.20;;;;;;5094971;28;20413;-65
2022/07/21 11:03:31;;;;;;;;;;;20.90;96.10;;;;;;5095984;28;19916;-66
2022/07/21 11:06:09;;;;;;;;;;;21.00;95.40;;;;;;5097866;28;20304;-66
2022/07/21 11:08:45;;;;;;;;;;;21.10;95.00;;;;;;5074413;28;19973;-64
2022/07/21 11:11:13;;;;;;;;;;;21.40;94.70;;;;;;5097154;28;19920;-66
2022/07/21 11:13:57;;;;;;;;;;;21.90;93.30;;;;;;5079002;28;19912;-65
2022/07/21 11:17:04;;;;;;;;;;;22.30;91.60;;;;;;5091242;28;19920;-65
2022/07/21 11:19:28;;;;;;;;;;;22.40;90.90;;;;;;5092515;28;19928;-65
2022/07/21 11:21:54;;;;;;;;;;;22.50;90.70;;;;;;5093796;28;19916;-64
2022/07/21 11:24:24;;;;;;;;;;;22.60;90.60;;;;;;5094079;28;20743;-66
2022/07/21 11:27:00;;;;;;;;;;;23.00;89.30;;;;;;5092716;28;19998;-66
2022/07/21 11:29:26;;;;;;;;;;;23.30;87.20;;;;;;5092691;28;19953;-65
2022/07/21 11:31:52;;;;;;;;;;;23.30;87.50;;;;;;5095637;28;20251;-66
2022/07/21 11:34:17;;;;;;;;;;;23.70;85.50;;;;;;5075823;28;19912;-66
2022/07/21 11:36:43;;;;;;;;;;;23.80;83.10;;;;;;5092285;28;19922;-65
2022/07/21 11:39:10;;;;;;;;;;;23.70;84.80;;;;;;5099873;28;19912;-65
2022/07/21 11:41:37;;;;;;;;;;;23.50;84.50;;;;;;5080685;28;19960;-65
2022/07/21 11:44:03;;;;;;;;;;;23.80;83.30;;;;;;5089089;28;19951;-65
2022/07/21 11:46:43;;;;;;;;;;;24.00;83.30;;;;;;5102794;28;19962;-64
2022/07/21 11:49:09;;;;;;;;;;;24.00;82.80;;;;;;5096815;28;19912;-66
2022/07/21 11:51:34;;;;;;;;;;;23.80;83.00;;;;;;5100174;28;19935;-65
2022/07/21 11:54:00;;;;;;;;;;;23.70;83.00;;;;;;5093183;28;19998;-66
2022/07/21 11:56:27;;;;;;;;;;;23.70;83.10;;;;;;5093429;28;19958;-67
2022/07/21 11:59:07;;;;;;;;;;;24.00;82.20;;;;;;5091473;28;19915;-67
2022/07/21 12:01:46;;;;;;;;;;;24.20;80.50;;;;;;5072154;28;20006;-65
2022/07/21 12:04:12;;;;;;;;;;;24.40;79.70;;;;;;5092336;28;19990;-65
2022/07/21 12:06:38;;;;;;;;;;;24.00;81.20;;;;;;5094179;28;19916;-66
2022/07/21 12:09:03;;;;;;;;;;;23.70;82.40;;;;;;5087878;28;20007;-65
2022/07/21 12:11:34;;;;;;;;;;;23.70;83.60;;;;;;5093847;28;20366;-65
2022/07/21 12:14:02;;;;;;;;;;;23.70;82.40;;;;;;5095124;28;19916;-65
2022/07/21 12:16:28;;;;;;;;;;;23.60;83.50;;;;;;5096737;28;20123;-66
2022/07/21 12:19:10;;;;;;;;;;;23.80;83.00;;;;;;5088633;28;20003;-66
2022/07/21 12:21:50;;;;;;;;;;;23.60;83.10;;;;;;5099954;28;19916;-65
2022/07/21 12:24:16;;;;;;;;;;;23.40;83.30;;;;;;5092412;28;20347;-64
2022/07/21 12:26:42;;;;;;;;;;;23.30;84.60;;;;;;5100549;28;20370;-65
2022/07/21 12:29:08;;;;;;;;;;;23.40;84.00;;;;;;5096736;28;19957;-65
2022/07/21 12:31:34;;;;;;;;;;;23.60;83.40;;;;;;5096858;28;19947;-65
2022/07/21 12:34:10;;;;;;;;;;;24.00;82.00;;;;;;5092748;28;19922;-65
2022/07/21 12:36:36;;;;;;;;;;;24.10;81.50;;;;;;5090231;28;19926;-64
2022/07/21 12:39:13;;;;;;;;;;;23.90;82.20;;;;;;5064718;28;19971;-65
2022/07/21 12:41:44;;;;;;;;;;;24.10;81.70;;;;;;5093293;28;19961;-65
2022/07/21 12:44:09;;;;;;;;;;;24.20;80.80;;;;;;5093389;28;19958;-66
2022/07/21 12:46:35;;;;;;;;;;;24.20;80.60;;;;;;5097005;28;19943;-65
2022/07/21 12:49:12;;;;;;;;;;;24.20;80.00;;;;;;5096292;28;19912;-65
2022/07/21 12:51:38;;;;;;;;;;;24.00;82.10;;;;;;5089548;28;20506;-65
2022/07/21 12:54:04;;;;;;;;;;;24.10;80.50;;;;;;5089014;28;19962;-66
2022/07/21 12:56:30;;;;;;;;;;;24.20;80.10;;;;;;5093194;28;19959;-65
2022/07/21 12:58:57;;;;;;;;;;;24.00;80.70;;;;;;5097120;28;19931;-65
2022/07/21 13:01:24;;;;;;;;;;;24.20;81.40;;;;;;5099632;28;19937;-65
2022/07/21 13:03:49;;;;;;;;;;;24.50;79.80;;;;;;5078299;28;19923;-66
2022/07/21 13:06:16;;;;;;;;;;;24.40;80.10;;;;;;5088378;28;19931;-65
2022/07/21 13:08:43;;;;;;;;;;;24.20;80.60;;;;;;5100965;28;20370;-65
2022/07/21 13:11:10;;;;;;;;;;;24.20;80.00;;;;;;5099607;28;20007;-65
2022/07/21 13:13:36;;;;;;;;;;;24.10;80.40;;;;;;5099747;28;19919;-64
2022/07/21 13:16:01;;;;;;;;;;;24.10;80.50;;;;;;5098756;28;19920;-66
2022/07/21 13:18:27;;;;;;;;;;;24.20;80.30;;;;;;5097947;28;19920;-66
2022/07/21 13:20:54;;;;;;;;;;;24.40;78.10;;;;;;5105418;28;19916;-64
2022/07/21 13:23:20;;;;;;;;;;;24.60;77.30;;;;;;5112950;28;19927;-65
2022/07/21 13:25:46;;;;;;;;;;;24.70;77.70;;;;;;5091928;28;19912;-66
2022/07/21 13:28:12;;;;;;;;;;;24.70;76.90;;;;;;5099773;28;20282;-65
2022/07/21 13:30:40;;;;;;;;;;;24.70;77.00;;;;;;5099860;28;19912;-66
2022/07/21 13:33:06;;;;;;;;;;;24.70;76.30;;;;;;5086165;28;19912;-65
2022/07/21 13:35:31;;;;;;;;;;;24.50;76.90;;;;;;5102189;28;20323;-65
2022/07/21 13:37:57;;;;;;;;;;;24.50;76.90;;;;;;5075872;28;19912;-66
2022/07/21 13:40:24;;;;;;;;;;;24.40;77.10;;;;;;5095693;28;19958;-65
2022/07/21 13:42:50;;;;;;;;;;;24.20;77.60;;;;;;5094291;28;20266;-64
2022/07/21 13:45:15;;;;;;;;;;;24.20;78.80;;;;;;5092159;28;19912;-65
2022/07/21 13:47:42;;;;;;;;;;;24.20;79.20;;;;;;5100602;28;19912;-65
2022/07/21 13:50:07;;;;;;;;;;;24.40;78.40;;;;;;5093833;28;19908;-66
2022/07/21 13:52:33;;;;;;;;;;;24.60;78.10;;;;;;5103445;28;20010;-66
2022/07/21 13:54:59;;;;;;;;;;;24.70;76.70;;;;;;5096743;28;19923;-66
2022/07/21 13:57:25;;;;;;;;;;;24.80;76.30;;;;;;5095645;28;19922;-65
2022/07/21 13:59:50;;;;;;;;;;;24.70;75.40;;;;;;5098574;28;19919;-65
2022/07/21 14:02:16;;;;;;;;;;;24.90;75.50;;;;;;5100013;28;19916;-66
2022/07/21 14:04:42;;;;;;;;;;;25.20;75.00;;;;;;5091096;28;20281;-65
2022/07/21 14:07:08;;;;;;;;;;;25.20;72.60;;;;;;5105145;28;19912;-65
2022/07/21 14:09:33;;;;;;;;;;;25.50;71.40;;;;;;5095124;28;19923;-65
2022/07/21 14:11:59;;;;;;;;;;;25.80;70.40;;;;;;5094396;28;19916;-65
2022/07/21 14:14:26;;;;;;;;;;;26.10;69.40;;;;;;5104622;28;20285;-66
2022/07/21 14:16:53;;;;;;;;;;;26.20;69.20;;;;;;5105030;28;19927;-66